sensor_id;sensor_type;location;lat;lon;timestamp;temperature;humidity
23783;DHT22;12071;50.850;4.446;2024-02-16T00:00:17;14.70;99.90
23783;DHT22;12071;50.850;4.446;2024-02-16T00:02:43;14.90;1.00
23783;DHT22;12071;50.850;4.446;2024-02-16T00:05:10;14.80;3.70
23783;DHT22;12071;50.850;4.446;2024-02-16T00:07:38;14.80;1.00
23783;DHT22;12071;50.850;4.446;2024-02-16T00:10:05;14.90;13.00
23783;DHT22;12071;50.850;4.446;2024-02-16T00:12:32;14.80;1.00
23783;DHT22;12071;50.850;4.446;2024-02-16T00:14:58;14.80;99.90
23783;DHT22;12071;50.850;4.446;2024-02-16T00:17:25;14.80;99.90
23783;DHT22;12071;50.850;4.446;2024-02-16T00:19:53;14.70;99.90
23783;DHT22;12071;50.850;4.446;2024-02-16T00:22:19;14.70;99.90
23783;DHT22;12071;50.850;4.446;2024-02-16T00:24:46;14.90;1.00
23783;DHT22;12071;50.850;4.446;2024-02-16T00:27:12;14.90;1.00
23783;DHT22;12071;50.850;4.446;2024-02-16T00:29:39;14.80;32.90
23783;DHT22;12071;50.850;4.446;2024-02-16T00:32:05;14.90;1.00
23783;DHT22;12071;50.850;4.446;2024-02-16T00:34:35;14.90;1.00
23783;DHT22;12071;50.850;4.446;2024-02-16T00:37:00;14.80;45.30
23783;DHT22;12071;50.850;4.446;2024-02-16T00:39:26;14.80;99.90
23783;DHT22;12071;50.850;4.446;2024-02-16T00:41:52;14.70;99.90
23783;DHT22;12071;50.850;4.446;2024-02-16T00:44:18;14.90;99.90
23783;DHT22;12071;50.850;4.446;2024-02-16T00:46:46;14.80;99.90
23783;DHT22;12071;50.850;4.446;2024-02-16T00:49:12;14.70;99.90
23783;DHT22;12071;50.850;4.446;2024-02-16T00:51:39;14.60;99.90
23783;DHT22;12071;50.850;4.446;2024-02-16T00:54:04;14.80;99.90
23783;DHT22;12071;50.850;4.446;2024-02-16T00:56:31;14.90;99.90
23783;DHT22;12071;50.850;4.446;2024-02-16T00:58:57;14.90;71.90
23783;DHT22;12071;50.850;4.446;2024-02-16T01:01:23;14.80;99.90
23783;DHT22;12071;50.850;4.446;2024-02-16T01:03:51;14.70;99.90
23783;DHT22;12071;50.850;4.446;2024-02-16T01:06:17;14.60;99.90
23783;DHT22;12071;50.850;4.446;2024-02-16T01:08:43;14.50;1.00
23783;DHT22;12071;50.850;4.446;2024-02-16T01:11:09;14.70;1.00
23783;DHT22;12071;50.850;4.446;2024-02-16T01:13:34;14.70;99.90
23783;DHT22;12071;50.850;4.446;2024-02-16T01:16:00;14.80;99.90
23783;DHT22;12071;50.850;4.446;2024-02-16T01:18:28;14.80;1.00
23783;DHT22;12071;50.850;4.446;2024-02-16T01:20:54;14.70;1.00
23783;DHT22;12071;50.850;4.446;2024-02-16T01:23:23;14.70;20.00
23783;DHT22;12071;50.850;4.446;2024-02-16T01:25:48;14.70;1.00
23783;DHT22;12071;50.850;4.446;2024-02-16T01:28:14;14.70;90.20
23783;DHT22;12071;50.850;4.446;2024-02-16T01:30:40;14.70;28.90
23783;DHT22;12071;50.850;4.446;2024-02-16T01:33:06;14.80;34.40
23783;DHT22;12071;50.850;4.446;2024-02-16T01:35:35;14.80;1.00
23783;DHT22;12071;50.850;4.446;2024-02-16T01:38:01;14.70;99.90
23783;DHT22;12071;50.850;4.446;2024-02-16T01:40:27;14.60;99.90
23783;DHT22;12071;50.850;4.446;2024-02-16T01:42:53;14.80;99.90
23783;DHT22;12071;50.850;4.446;2024-02-16T01:45:20;14.80;1.00
23783;DHT22;12071;50.850;4.446;2024-02-16T01:47:47;14.90;23.80
23783;DHT22;12071;50.850;4.446;2024-02-16T01:50:15;14.90;1.00
23783;DHT22;12071;50.850;4.446;2024-02-16T01:52:43;14.80;55.40
23783;DHT22;12071;50.850;4.446;2024-02-16T01:55:09;14.90;12.50
23783;DHT22;12071;50.850;4.446;2024-02-16T01:57:46;15.00;12.30
23783;DHT22;12071;50.850;4.446;2024-02-16T02:00:12;14.90;27.80
23783;DHT22;12071;50.850;4.446;2024-02-16T02:02:40;14.80;99.90
23783;DHT22;12071;50.850;4.446;2024-02-16T02:05:06;14.90;99.90
23783;DHT22;12071;50.850;4.446;2024-02-16T02:07:32;14.90;99.90
23783;DHT22;12071;50.850;4.446;2024-02-16T02:09:58;14.90;99.90
23783;DHT22;12071;50.850;4.446;2024-02-16T02:12:24;14.80;99.90
23783;DHT22;12071;50.850;4.446;2024-02-16T02:14:50;14.80;99.90
23783;DHT22;12071;50.850;4.446;2024-02-16T02:17:17;14.80;99.90
23783;DHT22;12071;50.850;4.446;2024-02-16T02:19:46;14.80;1.00
23783;DHT22;12071;50.850;4.446;2024-02-16T02:22:19;14.70;1.00
23783;DHT22;12071;50.850;4.446;2024-02-16T02:24:46;14.70;92.10
23783;DHT22;12071;50.850;4.446;2024-02-16T02:27:12;14.70;32.80
23783;DHT22;12071;50.850;4.446;2024-02-16T02:29:41;14.70;99.90
23783;DHT22;12071;50.850;4.446;2024-02-16T02:32:08;14.80;99.90
23783;DHT22;12071;50.850;4.446;2024-02-16T02:34:34;14.80;97.40
23783;DHT22;12071;50.850;4.446;2024-02-16T02:37:01;14.80;75.50
23783;DHT22;12071;50.850;4.446;2024-02-16T02:39:27;14.80;99.90
23783;DHT22;12071;50.850;4.446;2024-02-16T02:41:53;14.80;99.90
23783;DHT22;12071;50.850;4.446;2024-02-16T02:44:18;14.80;99.90
23783;DHT22;12071;50.850;4.446;2024-02-16T02:46:47;14.80;99.90
23783;DHT22;12071;50.850;4.446;2024-02-16T02:49:12;14.90;99.90
23783;DHT22;12071;50.850;4.446;2024-02-16T02:51:38;14.90;77.30
23783;DHT22;12071;50.850;4.446;2024-02-16T02:54:04;14.90;99.90
23783;DHT22;12071;50.850;4.446;2024-02-16T02:56:29;14.90;99.90
23783;DHT22;12071;50.850;4.446;2024-02-16T02:58:55;14.80;99.90
23783;DHT22;12071;50.850;4.446;2024-02-16T03:01:20;14.70;99.90
23783;DHT22;12071;50.850;4.446;2024-02-16T03:03:47;15.00;99.90
23783;DHT22;12071;50.850;4.446;2024-02-16T03:06:16;14.90;99.90
23783;DHT22;12071;50.850;4.446;2024-02-16T03:08:42;14.80;99.90
23783;DHT22;12071;50.850;4.446;2024-02-16T03:11:08;14.60;1.00
23783;DHT22;12071;50.850;4.446;2024-02-16T03:13:33;14.60;1.00
23783;DHT22;12071;50.850;4.446;2024-02-16T03:15:59;14.60;5.90
23783;DHT22;12071;50.850;4.446;2024-02-16T03:18:28;14.60;34.10
23783;DHT22;12071;50.850;4.446;2024-02-16T03:20:54;14.70;8.00
23783;DHT22;12071;50.850;4.446;2024-02-16T03:23:19;14.80;1.00
23783;DHT22;12071;50.850;4.446;2024-02-16T03:25:45;14.80;1.00
23783;DHT22;12071;50.850;4.446;2024-02-16T03:28:14;14.70;62.40
23783;DHT22;12071;50.850;4.446;2024-02-16T03:30:40;14.90;1.00
23783;DHT22;12071;50.850;4.446;2024-02-16T03:33:06;14.90;1.00
23783;DHT22;12071;50.850;4.446;2024-02-16T03:35:31;14.80;1.00
23783;DHT22;12071;50.850;4.446;2024-02-16T03:37:57;14.80;1.00
23783;DHT22;12071;50.850;4.446;2024-02-16T03:40:24;14.80;1.00
23783;DHT22;12071;50.850;4.446;2024-02-16T03:42:50;14.70;99.90
23783;DHT22;12071;50.850;4.446;2024-02-16T03:45:16;14.90;71.50
23783;DHT22;12071;50.850;4.446;2024-02-16T03:47:42;14.80;1.00
23783;DHT22;12071;50.850;4.446;2024-02-16T03:50:08;14.90;11.90
23783;DHT22;12071;50.850;4.446;2024-02-16T03:52:34;14.80;99.90
23783;DHT22;12071;50.850;4.446;2024-02-16T03:54:59;14.90;99.90
23783;DHT22;12071;50.850;4.446;2024-02-16T03:57:25;14.90;99.90
23783;DHT22;12071;50.850;4.446;2024-02-16T03:59:52;14.80;39.30
23783;DHT22;12071;50.850;4.446;2024-02-16T04:02:17;14.70;99.90
23783;DHT22;12071;50.850;4.446;2024-02-16T04:04:44;14.80;99.90
23783;DHT22;12071;50.850;4.446;2024-02-16T04:07:10;14.90;99.90
23783;DHT22;12071;50.850;4.446;2024-02-16T04:09:36;15.00;99.90
23783;DHT22;12071;50.850;4.446;2024-02-16T04:12:02;15.00;78.40
23783;DHT22;12071;50.850;4.446;2024-02-16T04:14:29;14.90;99.90
23783;DHT22;12071;50.850;4.446;2024-02-16T04:16:56;15.00;51.10
23783;DHT22;12071;50.850;4.446;2024-02-16T04:19:26;14.90;99.90
23783;DHT22;12071;50.850;4.446;2024-02-16T04:21:52;14.90;99.90
23783;DHT22;12071;50.850;4.446;2024-02-16T04:24:18;14.80;99.90
23783;DHT22;12071;50.850;4.446;2024-02-16T04:26:44;14.70;1.00
23783;DHT22;12071;50.850;4.446;2024-02-16T04:29:10;14.80;99.90
23783;DHT22;12071;50.850;4.446;2024-02-16T04:31:39;14.80;1.00
23783;DHT22;12071;50.850;4.446;2024-02-16T04:34:05;14.80;99.90
23783;DHT22;12071;50.850;4.446;2024-02-16T04:36:31;14.90;99.90
23783;DHT22;12071;50.850;4.446;2024-02-16T04:38:57;14.80;99.90
23783;DHT22;12071;50.850;4.446;2024-02-16T04:41:22;14.80;1.00
23783;DHT22;12071;50.850;4.446;2024-02-16T04:43:48;14.90;99.90
23783;DHT22;12071;50.850;4.446;2024-02-16T04:46:17;14.80;1.00
23783;DHT22;12071;50.850;4.446;2024-02-16T04:48:43;14.80;1.00
23783;DHT22;12071;50.850;4.446;2024-02-16T04:51:10;14.80;1.00
23783;DHT22;12071;50.850;4.446;2024-02-16T04:53:35;14.80;1.00
23783;DHT22;12071;50.850;4.446;2024-02-16T04:56:01;14.80;1.00
23783;DHT22;12071;50.850;4.446;2024-02-16T04:58:28;14.80;1.00
23783;DHT22;12071;50.850;4.446;2024-02-16T05:00:53;14.80;1.00
23783;DHT22;12071;50.850;4.446;2024-02-16T05:03:19;14.90;1.00
23783;DHT22;12071;50.850;4.446;2024-02-16T05:05:45;15.00;1.00
23783;DHT22;12071;50.850;4.446;2024-02-16T05:08:11;15.10;1.00
23783;DHT22;12071;50.850;4.446;2024-02-16T05:10:37;15.10;99.90
23783;DHT22;12071;50.850;4.446;2024-02-16T05:13:03;15.00;1.00
23783;DHT22;12071;50.850;4.446;2024-02-16T05:15:30;14.90;1.00
23783;DHT22;12071;50.850;4.446;2024-02-16T05:17:56;14.90;1.00
23783;DHT22;12071;50.850;4.446;2024-02-16T05:20:23;14.80;29.50
23783;DHT22;12071;50.850;4.446;2024-02-16T05:22:48;14.90;1.00
23783;DHT22;12071;50.850;4.446;2024-02-16T05:25:15;14.90;33.10
23783;DHT22;12071;50.850;4.446;2024-02-16T05:27:43;14.90;1.00
23783;DHT22;12071;50.850;4.446;2024-02-16T05:30:10;15.10;1.00
23783;DHT22;12071;50.850;4.446;2024-02-16T05:32:38;15.00;1.00
23783;DHT22;12071;50.850;4.446;2024-02-16T05:35:04;15.00;1.00
23783;DHT22;12071;50.850;4.446;2024-02-16T05:37:40;14.90;59.70
23783;DHT22;12071;50.850;4.446;2024-02-16T05:40:08;15.00;45.20
23783;DHT22;12071;50.850;4.446;2024-02-16T05:42:47;15.00;16.90
23783;DHT22;12071;50.850;4.446;2024-02-16T05:45:16;15.10;38.80
23783;DHT22;12071;50.850;4.446;2024-02-16T05:47:45;15.00;90.80
23783;DHT22;12071;50.850;4.446;2024-02-16T05:50:14;15.00;52.10
23783;DHT22;12071;50.850;4.446;2024-02-16T05:52:42;14.80;99.90
23783;DHT22;12071;50.850;4.446;2024-02-16T05:55:09;14.80;99.90
23783;DHT22;12071;50.850;4.446;2024-02-16T05:57:35;14.80;99.90
23783;DHT22;12071;50.850;4.446;2024-02-16T06:00:05;14.80;99.90
23783;DHT22;12071;50.850;4.446;2024-02-16T06:02:32;14.80;99.90
23783;DHT22;12071;50.850;4.446;2024-02-16T06:04:59;14.90;99.90
23783;DHT22;12071;50.850;4.446;2024-02-16T06:07:24;14.90;99.90
23783;DHT22;12071;50.850;4.446;2024-02-16T06:09:51;14.90;99.90
23783;DHT22;12071;50.850;4.446;2024-02-16T06:12:17;14.80;99.90
23783;DHT22;12071;50.850;4.446;2024-02-16T06:14:43;14.90;99.90
23783;DHT22;12071;50.850;4.446;2024-02-16T06:17:09;14.80;99.90
23783;DHT22;12071;50.850;4.446;2024-02-16T06:19:35;14.80;99.90
23783;DHT22;12071;50.850;4.446;2024-02-16T06:22:01;14.90;1.00
23783;DHT22;12071;50.850;4.446;2024-02-16T06:24:27;15.00;99.90
23783;DHT22;12071;50.850;4.446;2024-02-16T06:26:53;15.20;99.90
23783;DHT22;12071;50.850;4.446;2024-02-16T06:29:20;15.00;1.00
23783;DHT22;12071;50.850;4.446;2024-02-16T06:31:49;15.00;1.00
23783;DHT22;12071;50.850;4.446;2024-02-16T06:34:14;14.80;17.30
23783;DHT22;12071;50.850;4.446;2024-02-16T06:36:41;14.90;71.50
23783;DHT22;12071;50.850;4.446;2024-02-16T06:39:06;15.00;64.50
23783;DHT22;12071;50.850;4.446;2024-02-16T06:41:32;14.80;72.90
23783;DHT22;12071;50.850;4.446;2024-02-16T06:43:58;14.70;99.90
23783;DHT22;12071;50.850;4.446;2024-02-16T06:46:23;14.80;99.90
23783;DHT22;12071;50.850;4.446;2024-02-16T06:48:50;14.70;99.90
23783;DHT22;12071;50.850;4.446;2024-02-16T06:51:17;14.70;99.90
23783;DHT22;12071;50.850;4.446;2024-02-16T06:53:43;14.70;99.90
23783;DHT22;12071;50.850;4.446;2024-02-16T06:56:09;14.70;99.90
23783;DHT22;12071;50.850;4.446;2024-02-16T06:58:35;14.60;99.90
23783;DHT22;12071;50.850;4.446;2024-02-16T07:01:02;14.60;99.90
23783;DHT22;12071;50.850;4.446;2024-02-16T07:03:29;14.60;99.90
23783;DHT22;12071;50.850;4.446;2024-02-16T07:05:55;14.60;99.90
23783;DHT22;12071;50.850;4.446;2024-02-16T07:08:20;14.60;99.90
23783;DHT22;12071;50.850;4.446;2024-02-16T07:10:49;14.70;99.90
23783;DHT22;12071;50.850;4.446;2024-02-16T07:13:17;14.70;99.90
23783;DHT22;12071;50.850;4.446;2024-02-16T07:15:43;14.80;99.90
23783;DHT22;12071;50.850;4.446;2024-02-16T07:18:09;14.70;99.90
23783;DHT22;12071;50.850;4.446;2024-02-16T07:20:35;14.80;99.90
23783;DHT22;12071;50.850;4.446;2024-02-16T07:23:02;14.80;99.90
23783;DHT22;12071;50.850;4.446;2024-02-16T07:25:28;14.80;99.90
23783;DHT22;12071;50.850;4.446;2024-02-16T07:27:53;14.80;99.90
23783;DHT22;12071;50.850;4.446;2024-02-16T07:30:20;14.80;99.90
23783;DHT22;12071;50.850;4.446;2024-02-16T07:32:52;14.80;99.90
23783;DHT22;12071;50.850;4.446;2024-02-16T07:35:20;14.80;99.90
23783;DHT22;12071;50.850;4.446;2024-02-16T07:37:50;14.80;99.90
23783;DHT22;12071;50.850;4.446;2024-02-16T07:40:19;14.90;99.90
23783;DHT22;12071;50.850;4.446;2024-02-16T07:42:45;14.90;99.90
23783;DHT22;12071;50.850;4.446;2024-02-16T07:45:11;15.00;99.90
23783;DHT22;12071;50.850;4.446;2024-02-16T07:47:39;14.90;99.90
23783;DHT22;12071;50.850;4.446;2024-02-16T07:50:05;14.80;99.90
23783;DHT22;12071;50.850;4.446;2024-02-16T07:52:31;14.90;99.90
23783;DHT22;12071;50.850;4.446;2024-02-16T07:54:57;14.90;99.90
23783;DHT22;12071;50.850;4.446;2024-02-16T07:57:24;15.10;99.90
23783;DHT22;12071;50.850;4.446;2024-02-16T07:59:49;15.00;99.90
23783;DHT22;12071;50.850;4.446;2024-02-16T08:02:15;14.90;99.90
23783;DHT22;12071;50.850;4.446;2024-02-16T08:04:46;14.80;99.90
23783;DHT22;12071;50.850;4.446;2024-02-16T08:07:12;14.80;99.90
23783;DHT22;12071;50.850;4.446;2024-02-16T08:09:37;14.80;99.90
23783;DHT22;12071;50.850;4.446;2024-02-16T08:12:03;14.90;99.90
23783;DHT22;12071;50.850;4.446;2024-02-16T08:14:33;15.00;99.90
23783;DHT22;12071;50.850;4.446;2024-02-16T08:16:59;15.00;99.90
23783;DHT22;12071;50.850;4.446;2024-02-16T08:19:32;15.10;99.90
23783;DHT22;12071;50.850;4.446;2024-02-16T08:21:59;15.10;99.90
23783;DHT22;12071;50.850;4.446;2024-02-16T08:24:25;14.90;99.90
23783;DHT22;12071;50.850;4.446;2024-02-16T08:26:51;14.80;99.90
23783;DHT22;12071;50.850;4.446;2024-02-16T08:29:16;14.90;99.90
23783;DHT22;12071;50.850;4.446;2024-02-16T08:31:42;14.90;99.90
23783;DHT22;12071;50.850;4.446;2024-02-16T08:34:09;15.00;99.90
23783;DHT22;12071;50.850;4.446;2024-02-16T08:36:36;14.80;99.90
23783;DHT22;12071;50.850;4.446;2024-02-16T08:39:03;14.80;99.90
23783;DHT22;12071;50.850;4.446;2024-02-16T08:41:29;14.70;99.90
23783;DHT22;12071;50.850;4.446;2024-02-16T08:43:54;14.60;99.90
23783;DHT22;12071;50.850;4.446;2024-02-16T08:46:22;14.60;99.90
23783;DHT22;12071;50.850;4.446;2024-02-16T08:48:48;14.70;99.90
23783;DHT22;12071;50.850;4.446;2024-02-16T08:51:14;14.60;99.90
23783;DHT22;12071;50.850;4.446;2024-02-16T08:53:40;14.60;99.90
23783;DHT22;12071;50.850;4.446;2024-02-16T08:56:10;14.60;99.90
23783;DHT22;12071;50.850;4.446;2024-02-16T08:58:37;14.60;99.90
23783;DHT22;12071;50.850;4.446;2024-02-16T09:01:02;14.50;99.90
23783;DHT22;12071;50.850;4.446;2024-02-16T09:03:29;14.40;1.00
23783;DHT22;12071;50.850;4.446;2024-02-16T09:05:54;14.50;1.00
23783;DHT22;12071;50.850;4.446;2024-02-16T09:08:20;14.70;1.00
23783;DHT22;12071;50.850;4.446;2024-02-16T09:10:46;14.80;99.90
23783;DHT22;12071;50.850;4.446;2024-02-16T09:13:11;14.80;99.90
23783;DHT22;12071;50.850;4.446;2024-02-16T09:15:37;14.70;99.90
23783;DHT22;12071;50.850;4.446;2024-02-16T09:18:03;14.80;99.90
23783;DHT22;12071;50.850;4.446;2024-02-16T09:20:29;14.90;99.90
23783;DHT22;12071;50.850;4.446;2024-02-16T09:22:54;14.90;99.90
23783;DHT22;12071;50.850;4.446;2024-02-16T09:25:20;15.00;99.90
23783;DHT22;12071;50.850;4.446;2024-02-16T09:27:46;14.90;99.90
23783;DHT22;12071;50.850;4.446;2024-02-16T09:30:12;14.70;99.90
23783;DHT22;12071;50.850;4.446;2024-02-16T09:32:41;14.70;1.00
23783;DHT22;12071;50.850;4.446;2024-02-16T09:35:08;14.40;1.00
23783;DHT22;12071;50.850;4.446;2024-02-16T09:37:35;14.40;1.00
23783;DHT22;12071;50.850;4.446;2024-02-16T09:40:01;14.40;1.00
23783;DHT22;12071;50.850;4.446;2024-02-16T09:42:30;14.50;1.00
23783;DHT22;12071;50.850;4.446;2024-02-16T09:44:55;14.40;1.00
23783;DHT22;12071;50.850;4.446;2024-02-16T09:47:22;14.40;1.00
23783;DHT22;12071;50.850;4.446;2024-02-16T09:49:48;14.50;1.00
23783;DHT22;12071;50.850;4.446;2024-02-16T09:52:14;14.40;1.00
23783;DHT22;12071;50.850;4.446;2024-02-16T09:54:40;14.40;1.00
23783;DHT22;12071;50.850;4.446;2024-02-16T09:57:07;14.40;1.00
23783;DHT22;12071;50.850;4.446;2024-02-16T09:59:32;14.50;1.00
23783;DHT22;12071;50.850;4.446;2024-02-16T10:02:01;14.60;1.00
23783;DHT22;12071;50.850;4.446;2024-02-16T10:10:37;14.40;1.00
23783;DHT22;12071;50.850;4.446;2024-02-16T10:13:06;14.50;1.00
23783;DHT22;12071;50.850;4.446;2024-02-16T10:15:34;14.50;1.00
23783;DHT22;12071;50.850;4.446;2024-02-16T10:18:04;14.50;1.00
23783;DHT22;12071;50.850;4.446;2024-02-16T10:20:34;14.50;1.00
23783;DHT22;12071;50.850;4.446;2024-02-16T10:25:32;14.70;1.00
23783;DHT22;12071;50.850;4.446;2024-02-16T10:27:58;14.60;1.00
23783;DHT22;12071;50.850;4.446;2024-02-16T10:30:29;14.70;1.00
23783;DHT22;12071;50.850;4.446;2024-02-16T10:32:58;14.70;1.00
23783;DHT22;12071;50.850;4.446;2024-02-16T10:35:25;14.70;1.00
23783;DHT22;12071;50.850;4.446;2024-02-16T10:37:52;14.60;1.00
23783;DHT22;12071;50.850;4.446;2024-02-16T10:40:20;14.60;1.00
23783;DHT22;12071;50.850;4.446;2024-02-16T10:42:50;14.50;1.00
23783;DHT22;12071;50.850;4.446;2024-02-16T10:45:17;14.40;1.00
23783;DHT22;12071;50.850;4.446;2024-02-16T10:47:43;14.60;1.00
23783;DHT22;12071;50.850;4.446;2024-02-16T10:50:08;14.60;1.00
23783;DHT22;12071;50.850;4.446;2024-02-16T10:52:36;14.80;1.00
23783;DHT22;12071;50.850;4.446;2024-02-16T10:55:05;14.80;1.00
23783;DHT22;12071;50.850;4.446;2024-02-16T10:57:31;14.60;1.00
23783;DHT22;12071;50.850;4.446;2024-02-16T10:59:59;14.60;1.00
23783;DHT22;12071;50.850;4.446;2024-02-16T11:02:25;14.50;1.00
23783;DHT22;12071;50.850;4.446;2024-02-16T11:04:52;14.50;1.00
23783;DHT22;12071;50.850;4.446;2024-02-16T11:07:19;14.40;1.00
23783;DHT22;12071;50.850;4.446;2024-02-16T11:09:46;14.40;1.00
23783;DHT22;12071;50.850;4.446;2024-02-16T11:12:13;14.40;1.00
23783;DHT22;12071;50.850;4.446;2024-02-16T11:19:35;14.60;1.00
23783;DHT22;12071;50.850;4.446;2024-02-16T11:22:05;14.50;1.00
23783;DHT22;12071;50.850;4.446;2024-02-16T11:24:35;14.30;1.00
23783;DHT22;12071;50.850;4.446;2024-02-16T11:27:04;14.30;1.00
23783;DHT22;12071;50.850;4.446;2024-02-16T11:29:37;14.40;1.00
23783;DHT22;12071;50.850;4.446;2024-02-16T11:32:07;14.20;1.00
23783;DHT22;12071;50.850;4.446;2024-02-16T11:34:33;14.20;1.00
23783;DHT22;12071;50.850;4.446;2024-02-16T11:37:03;14.00;1.00
23783;DHT22;12071;50.850;4.446;2024-02-16T11:39:31;13.90;1.00
23783;DHT22;12071;50.850;4.446;2024-02-16T11:42:05;13.80;1.00
23783;DHT22;12071;50.850;4.446;2024-02-16T11:44:32;13.80;11.20
23783;DHT22;12071;50.850;4.446;2024-02-16T11:46:58;13.90;12.40
23783;DHT22;12071;50.850;4.446;2024-02-16T11:49:24;14.10;12.50
23783;DHT22;12071;50.850;4.446;2024-02-16T11:51:50;14.00;9.70
23783;DHT22;12071;50.850;4.446;2024-02-16T11:54:16;13.90;9.40
23783;DHT22;12071;50.850;4.446;2024-02-16T11:56:49;13.90;18.20
23783;DHT22;12071;50.850;4.446;2024-02-16T11:59:18;14.10;21.50
23783;DHT22;12071;50.850;4.446;2024-02-16T12:01:58;14.00;19.20
23783;DHT22;12071;50.850;4.446;2024-02-16T12:04:28;13.80;21.50
23783;DHT22;12071;50.850;4.446;2024-02-16T12:06:59;13.80;23.00
23783;DHT22;12071;50.850;4.446;2024-02-16T12:09:25;13.70;23.80
23783;DHT22;12071;50.850;4.446;2024-02-16T12:11:52;13.70;24.60
23783;DHT22;12071;50.850;4.446;2024-02-16T12:14:22;13.60;26.60
23783;DHT22;12071;50.850;4.446;2024-02-16T12:16:49;13.70;31.90
23783;DHT22;12071;50.850;4.446;2024-02-16T12:19:15;13.60;32.70
23783;DHT22;12071;50.850;4.446;2024-02-16T12:21:42;13.50;40.90
23783;DHT22;12071;50.850;4.446;2024-02-16T12:24:08;13.50;47.00
23783;DHT22;12071;50.850;4.446;2024-02-16T12:26:36;13.60;55.10
23783;DHT22;12071;50.850;4.446;2024-02-16T12:29:02;13.70;56.80
23783;DHT22;12071;50.850;4.446;2024-02-16T12:31:29;13.80;56.20
23783;DHT22;12071;50.850;4.446;2024-02-16T12:33:55;13.80;51.20
23783;DHT22;12071;50.850;4.446;2024-02-16T12:36:21;13.70;45.40
23783;DHT22;12071;50.850;4.446;2024-02-16T12:38:49;13.60;42.40
23783;DHT22;12071;50.850;4.446;2024-02-16T12:41:15;13.50;45.60
23783;DHT22;12071;50.850;4.446;2024-02-16T12:43:41;13.50;51.00
23783;DHT22;12071;50.850;4.446;2024-02-16T12:46:06;13.50;40.50
23783;DHT22;12071;50.850;4.446;2024-02-16T12:48:33;13.40;37.90
23783;DHT22;12071;50.850;4.446;2024-02-16T12:50:59;13.20;37.60
23783;DHT22;12071;50.850;4.446;2024-02-16T12:53:24;13.20;51.10
23783;DHT22;12071;50.850;4.446;2024-02-16T12:55:51;13.20;53.60
23783;DHT22;12071;50.850;4.446;2024-02-16T12:58:16;13.20;51.50
23783;DHT22;12071;50.850;4.446;2024-02-16T13:00:42;13.20;47.60
23783;DHT22;12071;50.850;4.446;2024-02-16T13:03:08;13.10;49.40
23783;DHT22;12071;50.850;4.446;2024-02-16T13:05:34;13.10;56.00
23783;DHT22;12071;50.850;4.446;2024-02-16T13:08:00;13.10;53.00
23783;DHT22;12071;50.850;4.446;2024-02-16T13:10:26;13.00;51.20
23783;DHT22;12071;50.850;4.446;2024-02-16T13:12:52;13.00;52.40
23783;DHT22;12071;50.850;4.446;2024-02-16T13:15:18;13.10;53.00
23783;DHT22;12071;50.850;4.446;2024-02-16T13:17:43;13.20;50.40
23783;DHT22;12071;50.850;4.446;2024-02-16T13:20:09;13.10;46.10
23783;DHT22;12071;50.850;4.446;2024-02-16T13:22:38;13.30;45.20
23783;DHT22;12071;50.850;4.446;2024-02-16T13:25:04;13.40;39.10
23783;DHT22;12071;50.850;4.446;2024-02-16T13:27:31;13.70;34.80
23783;DHT22;12071;50.850;4.446;2024-02-16T13:29:57;13.60;24.70
23783;DHT22;12071;50.850;4.446;2024-02-16T13:32:23;13.50;21.00
23783;DHT22;12071;50.850;4.446;2024-02-16T13:34:48;13.40;22.40
23783;DHT22;12071;50.850;4.446;2024-02-16T13:37:14;13.50;28.60
23783;DHT22;12071;50.850;4.446;2024-02-16T13:39:40;13.70;29.20
23783;DHT22;12071;50.850;4.446;2024-02-16T13:42:05;13.50;19.40
23783;DHT22;12071;50.850;4.446;2024-02-16T13:44:32;13.50;16.10
23783;DHT22;12071;50.850;4.446;2024-02-16T13:46:57;13.50;12.10
23783;DHT22;12071;50.850;4.446;2024-02-16T13:49:23;13.40;9.70
23783;DHT22;12071;50.850;4.446;2024-02-16T13:51:50;13.40;8.60
23783;DHT22;12071;50.850;4.446;2024-02-16T13:54:15;13.60;13.60
23783;DHT22;12071;50.850;4.446;2024-02-16T13:56:41;13.60;7.40
23783;DHT22;12071;50.850;4.446;2024-02-16T13:59:08;13.50;1.00
23783;DHT22;12071;50.850;4.446;2024-02-16T14:01:34;13.50;6.90
23783;DHT22;12071;50.850;4.446;2024-02-16T14:04:00;13.50;9.50
23783;DHT22;12071;50.850;4.446;2024-02-16T14:06:28;13.60;1.00
23783;DHT22;12071;50.850;4.446;2024-02-16T14:08:54;13.80;1.00
23783;DHT22;12071;50.850;4.446;2024-02-16T14:11:21;14.00;1.00
23783;DHT22;12071;50.850;4.446;2024-02-16T14:13:48;13.80;1.00
23783;DHT22;12071;50.850;4.446;2024-02-16T14:16:14;13.80;1.00
23783;DHT22;12071;50.850;4.446;2024-02-16T14:18:40;13.80;1.00
23783;DHT22;12071;50.850;4.446;2024-02-16T14:21:05;14.00;1.00
23783;DHT22;12071;50.850;4.446;2024-02-16T14:23:32;13.90;1.00
23783;DHT22;12071;50.850;4.446;2024-02-16T14:25:58;13.80;1.00
23783;DHT22;12071;50.850;4.446;2024-02-16T14:28:24;13.80;1.00
23783;DHT22;12071;50.850;4.446;2024-02-16T14:30:50;13.70;1.00
23783;DHT22;12071;50.850;4.446;2024-02-16T14:33:19;13.60;1.00
23783;DHT22;12071;50.850;4.446;2024-02-16T14:35:45;13.50;1.00
23783;DHT22;12071;50.850;4.446;2024-02-16T14:38:13;13.60;1.00
23783;DHT22;12071;50.850;4.446;2024-02-16T14:40:39;13.70;1.00
23783;DHT22;12071;50.850;4.446;2024-02-16T14:43:05;14.00;1.00
23783;DHT22;12071;50.850;4.446;2024-02-16T14:45:30;14.20;1.00
23783;DHT22;12071;50.850;4.446;2024-02-16T14:47:56;14.30;1.00
23783;DHT22;12071;50.850;4.446;2024-02-16T14:50:23;14.40;1.00
23783;DHT22;12071;50.850;4.446;2024-02-16T14:52:50;14.30;1.00
23783;DHT22;12071;50.850;4.446;2024-02-16T14:55:16;14.30;1.00
23783;DHT22;12071;50.850;4.446;2024-02-16T14:57:42;14.40;1.00
23783;DHT22;12071;50.850;4.446;2024-02-16T15:00:09;14.30;1.00
23783;DHT22;12071;50.850;4.446;2024-02-16T15:02:36;14.30;1.00
23783;DHT22;12071;50.850;4.446;2024-02-16T15:05:06;14.30;1.00
23783;DHT22;12071;50.850;4.446;2024-02-16T15:07:32;14.10;1.00
23783;DHT22;12071;50.850;4.446;2024-02-16T15:09:58;14.30;1.00
23783;DHT22;12071;50.850;4.446;2024-02-16T15:12:23;14.40;1.00
23783;DHT22;12071;50.850;4.446;2024-02-16T15:14:49;14.40;1.00
23783;DHT22;12071;50.850;4.446;2024-02-16T15:17:15;14.30;1.00
23783;DHT22;12071;50.850;4.446;2024-02-16T15:19:41;14.20;1.00
23783;DHT22;12071;50.850;4.446;2024-02-16T15:22:07;14.00;1.00
23783;DHT22;12071;50.850;4.446;2024-02-16T15:24:33;14.00;1.00
23783;DHT22;12071;50.850;4.446;2024-02-16T15:26:59;13.90;1.00
23783;DHT22;12071;50.850;4.446;2024-02-16T15:29:25;14.00;1.00
23783;DHT22;12071;50.850;4.446;2024-02-16T15:31:52;13.90;1.00
23783;DHT22;12071;50.850;4.446;2024-02-16T15:34:18;14.10;1.00
23783;DHT22;12071;50.850;4.446;2024-02-16T15:36:43;14.10;1.00
23783;DHT22;12071;50.850;4.446;2024-02-16T15:39:09;14.00;1.00
23783;DHT22;12071;50.850;4.446;2024-02-16T15:41:37;14.00;1.00
23783;DHT22;12071;50.850;4.446;2024-02-16T15:44:02;14.00;1.00
23783;DHT22;12071;50.850;4.446;2024-02-16T15:46:28;14.00;1.00